createdAt,value
2018-09-05T00:00:54.975Z,0
2018-09-05T00:01:55.037Z,0
2018-09-05T00:02:55.039Z,0
2018-09-05T00:03:54.971Z,0
2018-09-05T00:04:55.040Z,0
2018-09-05T00:05:54.970Z,0
2018-09-05T00:06:55.045Z,0
2018-09-05T00:07:54.973Z,0
2018-09-05T00:08:54.975Z,0
2018-09-05T00:09:55.044Z,0
2018-09-05T00:10:54.979Z,0
2018-09-05T00:11:54.977Z,0
2018-09-05T00:12:55.045Z,0
2018-09-05T00:13:54.987Z,0
2018-09-05T00:14:55.045Z,0
2018-09-05T00:15:54.979Z,0
2018-09-05T00:16:55.050Z,0
2018-09-05T00:17:55.012Z,0
2018-09-05T00:18:54.986Z,0
2018-09-05T00:19:55.051Z,0
2018-09-05T00:20:54.982Z,0
2018-09-05T00:21:54.980Z,0
2018-09-05T00:22:55.002Z,0
2018-09-05T00:23:55.008Z,0
2018-09-05T00:24:54.964Z,0
2018-09-05T00:25:55.010Z,0
2018-09-05T00:26:55.046Z,0
2018-09-05T00:27:54.961Z,0
2018-09-05T00:28:54.990Z,0
2018-09-05T00:29:55.053Z,0
2018-09-05T00:30:54.956Z,0
2018-09-05T00:31:55.009Z,0
2018-09-05T00:32:54.990Z,0
2018-09-05T00:33:54.994Z,0
2018-09-05T00:34:55.060Z,0
2018-09-05T00:35:55.061Z,0
2018-09-05T00:36:55.062Z,0
2018-09-05T00:37:55.021Z,0
2018-09-05T00:38:55.065Z,0
2018-09-05T00:39:54.998Z,0
2018-09-05T00:40:54.995Z,0
2018-09-05T00:41:55.066Z,0
2018-09-05T00:42:54.989Z,0
2018-09-05T00:43:54.929Z,0
2018-09-05T00:44:54.996Z,0
2018-09-05T00:45:54.998Z,0
2018-09-05T00:46:54.956Z,0
2018-09-05T00:47:54.932Z,0
2018-09-05T00:48:55.023Z,0
2018-09-05T00:49:55.034Z,0
2018-09-05T00:50:54.941Z,0
2018-09-05T00:51:54.939Z,0
2018-09-05T00:52:55.074Z,0
2018-09-05T00:53:55.074Z,0
2018-09-05T00:54:55.117Z,0
2018-09-05T00:55:55.082Z,0
2018-09-05T00:56:55.006Z,0
2018-09-05T00:57:55.078Z,0
2018-09-05T00:58:55.008Z,0
2018-09-05T00:59:55.011Z,0
2018-09-05T01:00:55.009Z,0
2018-09-05T01:01:55.079Z,0
2018-09-05T01:02:55.003Z,0
2018-09-05T01:03:55.094Z,0
2018-09-05T01:04:55.018Z,0
2018-09-05T01:05:55.016Z,0
2018-09-05T01:06:55.015Z,0
2018-09-05T01:07:55.086Z,0
2018-09-05T01:08:55.114Z,0
2018-09-05T01:09:55.020Z,0
2018-09-05T01:10:55.017Z,0
2018-09-05T01:11:55.019Z,0
2018-09-05T01:12:54.952Z,0
2018-09-05T01:13:54.956Z,0
2018-09-05T01:14:54.979Z,0
2018-09-05T01:15:55.119Z,0
2018-09-05T01:16:55.046Z,0
2018-09-05T01:17:54.956Z,0
2018-09-05T01:18:55.042Z,0
2018-09-05T01:19:54.955Z,0
2018-09-05T01:20:54.957Z,0
2018-09-05T01:21:55.017Z,0
2018-09-05T01:22:55.042Z,0
2018-09-05T01:23:55.029Z,0
2018-09-05T01:24:55.096Z,0
2018-09-05T01:25:55.027Z,0
2018-09-05T01:26:55.099Z,0
2018-09-05T01:27:55.030Z,0
2018-09-05T01:28:55.098Z,0
2018-09-05T01:29:55.026Z,0
2018-09-05T01:30:55.056Z,0
2018-09-05T01:31:55.028Z,0
2018-09-05T01:32:55.071Z,0
2018-09-05T01:33:55.001Z,0
2018-09-05T01:34:54.953Z,0
2018-09-05T01:35:54.936Z,0
2018-09-05T01:36:54.997Z,0
2018-09-05T01:37:54.956Z,0
2018-09-05T01:38:55.043Z,0
2018-09-05T01:39:55.051Z,0
2018-09-05T01:40:55.007Z,0
2018-09-05T01:41:55.122Z,0
2018-09-05T01:42:54.970Z,0
2018-09-05T01:43:55.071Z,0
2018-09-05T01:44:55.310Z,0
2018-09-05T01:45:55.015Z,0
2018-09-05T01:46:55.012Z,0
2018-09-05T01:47:55.035Z,0
2018-09-05T01:48:55.102Z,0
2018-09-05T01:49:54.998Z,0
2018-09-05T01:50:55.110Z,0
2018-09-05T01:51:55.084Z,0
2018-09-05T01:52:55.081Z,0
2018-09-05T01:53:55.048Z,0
2018-09-05T01:54:55.112Z,0
2018-09-05T01:55:55.089Z,0
2018-09-05T01:56:55.089Z,0
2018-09-05T01:57:55.109Z,0
2018-09-05T01:58:55.110Z,0
2018-09-05T01:59:55.106Z,0
2018-09-05T02:00:54.985Z,0
2018-09-05T02:01:55.025Z,0
2018-09-05T02:02:55.114Z,0
2018-09-05T02:04:03.793Z,0
2018-09-05T02:04:55.213Z,0
2018-09-05T02:05:55.062Z,0
2018-09-05T02:06:55.153Z,0
2018-09-05T02:07:55.129Z,0
2018-09-05T02:08:55.133Z,0
2018-09-05T02:09:55.062Z,0
2018-09-05T02:10:55.065Z,0
2018-09-05T02:11:55.129Z,0
2018-09-05T02:12:55.162Z,0
2018-09-05T02:13:55.029Z,0
2018-09-05T02:14:54.982Z,0
2018-09-05T02:15:55.002Z,0
2018-09-05T02:16:54.992Z,0
2018-09-05T02:17:55.081Z,0
2018-09-05T02:18:54.981Z,0
2018-09-05T02:19:55.108Z,0
2018-09-05T02:20:55.035Z,0
2018-09-05T02:21:54.986Z,0
2018-09-05T02:22:55.039Z,0
2018-09-05T02:23:55.072Z,0
2018-09-05T02:24:55.140Z,0
2018-09-05T02:25:55.142Z,0
2018-09-05T02:26:55.142Z,0
2018-09-05T02:27:55.115Z,0
2018-09-05T02:28:55.145Z,0
2018-09-05T02:29:55.072Z,0
2018-09-05T02:30:55.073Z,0
2018-09-05T02:31:55.099Z,0
2018-09-05T02:32:55.078Z,0
2018-09-05T02:33:55.073Z,0
2018-09-05T02:34:55.235Z,0
2018-09-05T02:35:55.079Z,0
2018-09-05T02:36:55.150Z,0
2018-09-05T02:37:55.077Z,0
2018-09-05T02:38:55.093Z,0
2018-09-05T02:39:55.238Z,0
2018-09-05T02:40:55.113Z,0
2018-09-05T02:41:55.028Z,0
2018-09-05T02:42:55.084Z,0
2018-09-05T02:43:55.153Z,0
2018-09-05T02:44:55.098Z,0
2018-09-05T02:45:55.151Z,0
2018-09-05T02:46:55.082Z,0
2018-09-05T02:47:55.185Z,0
2018-09-05T02:48:55.155Z,0
2018-09-05T02:49:55.114Z,0
2018-09-05T02:50:55.083Z,0
2018-09-05T02:51:55.156Z,0
2018-09-05T02:52:55.162Z,0
2018-09-05T02:53:55.087Z,0
2018-09-05T02:54:55.095Z,0
2018-09-05T02:55:55.091Z,0
2018-09-05T02:56:55.163Z,0
2018-09-05T02:57:55.091Z,0
2018-09-05T02:58:55.160Z,0
2018-09-05T02:59:55.162Z,0
2018-09-05T03:00:55.092Z,0
2018-09-05T03:01:55.100Z,0
2018-09-05T03:02:55.165Z,0
2018-09-05T03:03:55.183Z,0
2018-09-05T03:04:55.137Z,0
2018-09-05T03:05:55.103Z,0
2018-09-05T03:06:55.103Z,0
2018-09-05T03:07:55.126Z,0
2018-09-05T03:08:55.107Z,0
2018-09-05T03:09:55.169Z,0
2018-09-05T03:10:55.106Z,0
2018-09-05T03:11:55.050Z,0
2018-09-05T03:12:55.175Z,0
2018-09-05T03:13:55.050Z,0
2018-09-05T03:14:55.107Z,0
2018-09-05T03:15:55.106Z,0
2018-09-05T03:16:55.109Z,0
2018-09-05T03:17:55.108Z,0
2018-09-05T03:18:55.114Z,0
2018-09-05T03:19:55.178Z,0
2018-09-05T03:20:55.111Z,0
2018-09-05T03:21:55.111Z,0
2018-09-05T03:22:55.113Z,0
2018-09-05T03:23:55.136Z,0
2018-09-05T03:24:55.033Z,0
2018-09-05T03:25:55.016Z,0
2018-09-05T03:26:55.166Z,0
2018-09-05T03:27:55.167Z,0
2018-09-05T03:28:55.064Z,0
2018-09-05T03:29:55.135Z,0
2018-09-05T03:30:55.139Z,0
2018-09-05T03:31:55.071Z,0
2018-09-05T03:32:55.125Z,0
2018-09-05T03:33:55.118Z,0
2018-09-05T03:34:55.179Z,0
2018-09-05T03:35:55.135Z,0
2018-09-05T03:36:55.175Z,0
2018-09-05T03:37:55.058Z,0
2018-09-05T03:38:55.089Z,0
2018-09-05T03:39:55.190Z,0
2018-09-05T03:40:55.162Z,0
2018-09-05T03:41:55.177Z,0
2018-09-05T03:42:55.187Z,0
2018-09-05T03:43:55.179Z,0
2018-09-05T03:44:55.175Z,0
2018-09-05T03:45:55.124Z,0
2018-09-05T03:46:55.149Z,0
2018-09-05T03:47:55.057Z,0
2018-09-05T03:48:55.130Z,0
2018-09-05T03:49:55.183Z,0
2018-09-05T03:50:55.183Z,0
2018-09-05T03:51:55.103Z,0
2018-09-05T03:52:55.152Z,0
2018-09-05T03:53:55.169Z,0
2018-09-05T03:54:55.103Z,0
2018-09-05T03:55:55.158Z,0
2018-09-05T03:56:55.168Z,0
2018-09-05T03:57:55.157Z,0
2018-09-05T03:58:55.107Z,0
2018-09-05T03:59:55.103Z,0
2018-09-05T04:00:55.139Z,0
2018-09-05T04:01:55.194Z,0
2018-09-05T04:02:55.198Z,0
2018-09-05T04:03:55.209Z,0
2018-09-05T04:04:55.217Z,0
2018-09-05T04:05:55.142Z,0
2018-09-05T04:06:55.210Z,0
2018-09-05T04:07:55.212Z,0
2018-09-05T04:08:55.217Z,0
2018-09-05T04:09:55.242Z,0
2018-09-05T04:10:55.150Z,0
2018-09-05T04:11:55.220Z,0
2018-09-05T04:12:55.150Z,0
2018-09-05T04:13:55.144Z,0
2018-09-05T04:14:55.114Z,0
2018-09-05T04:15:55.174Z,0
2018-09-05T04:16:55.146Z,0
2018-09-05T04:17:55.200Z,0
2018-09-05T04:18:55.199Z,0
2018-09-05T04:19:55.250Z,0
2018-09-05T04:20:55.149Z,0
2018-09-05T04:21:55.139Z,0
2018-09-05T04:22:55.180Z,0
2018-09-05T04:23:55.100Z,0
2018-09-05T04:24:55.084Z,0
2018-09-05T04:25:55.218Z,5
2018-09-05T04:26:55.103Z,5
2018-09-05T04:27:55.218Z,5
2018-09-05T04:28:55.129Z,5
2018-09-05T04:29:55.308Z,5
2018-09-05T04:30:55.211Z,11
2018-09-05T04:31:55.217Z,11
2018-09-05T04:32:55.128Z,11
2018-09-05T04:33:55.234Z,11
2018-09-05T04:34:55.165Z,16
2018-09-05T04:35:55.113Z,16
2018-09-05T04:36:55.165Z,16
2018-09-05T04:37:55.237Z,22
2018-09-05T04:38:55.159Z,22
2018-09-05T04:39:55.235Z,28
2018-09-05T04:40:55.159Z,28
2018-09-05T04:41:55.168Z,33
2018-09-05T04:42:55.235Z,33
2018-09-05T04:43:55.174Z,39
2018-09-05T04:44:55.120Z,39
2018-09-05T04:45:55.105Z,45
2018-09-05T04:46:55.209Z,45
2018-09-05T04:47:55.139Z,50
2018-09-05T04:48:55.163Z,56
2018-09-05T04:49:55.195Z,56
2018-09-05T04:50:55.198Z,61
2018-09-05T04:51:55.228Z,67
2018-09-05T04:52:55.234Z,67
2018-09-05T04:53:55.168Z,73
2018-09-05T04:54:55.244Z,78
2018-09-05T04:55:55.244Z,84
2018-09-05T04:56:55.171Z,90
2018-09-05T04:57:55.181Z,90
2018-09-05T04:58:55.246Z,95
2018-09-05T04:59:55.169Z,101
2018-09-05T05:00:55.246Z,106
2018-09-05T05:01:55.183Z,112
2018-09-05T05:02:55.255Z,118
2018-09-05T05:03:55.195Z,123
2018-09-05T05:04:55.253Z,129
2018-09-05T05:05:55.207Z,135
2018-09-05T05:06:55.185Z,140
2018-09-05T05:07:55.255Z,146
2018-09-05T05:08:55.184Z,151
2018-09-05T05:09:55.181Z,157
2018-09-05T05:10:55.256Z,157
2018-09-05T05:11:55.273Z,163
2018-09-05T05:12:55.186Z,168
2018-09-05T05:13:55.226Z,174
2018-09-05T05:14:55.186Z,180
2018-09-05T05:15:55.188Z,191
2018-09-05T05:16:55.157Z,196
2018-09-05T05:17:55.185Z,202
2018-09-05T05:18:55.262Z,208
2018-09-05T05:19:55.186Z,213
2018-09-05T05:20:55.266Z,219
2018-09-05T05:21:55.193Z,230
2018-09-05T05:22:55.264Z,236
2018-09-05T05:23:55.271Z,241
2018-09-05T05:24:55.265Z,247
2018-09-05T05:25:55.264Z,253
2018-09-05T05:26:55.203Z,264
2018-09-05T05:27:55.193Z,270
2018-09-05T05:28:55.300Z,275
2018-09-05T05:29:55.194Z,281
2018-09-05T05:30:55.270Z,286
2018-09-05T05:31:55.199Z,298
2018-09-05T05:32:55.339Z,303
2018-09-05T05:33:55.200Z,309
2018-09-05T05:34:55.198Z,315
2018-09-05T05:35:55.272Z,320
2018-09-05T05:36:55.207Z,331
2018-09-05T05:37:55.273Z,337
2018-09-05T05:38:55.223Z,337
2018-09-05T05:39:55.204Z,348
2018-09-05T05:40:55.277Z,354
2018-09-05T05:41:55.205Z,365
2018-09-05T05:42:55.249Z,371
2018-09-05T05:43:55.227Z,382
2018-09-05T05:44:55.211Z,388
2018-09-05T05:45:55.227Z,393
2018-09-05T05:46:55.182Z,405
2018-09-05T05:47:55.140Z,495
2018-09-05T05:48:55.209Z,579
2018-09-05T05:49:55.229Z,500
2018-09-05T05:50:55.273Z,528
2018-09-05T05:51:55.182Z,601
2018-09-05T05:52:55.144Z,630
2018-09-05T05:53:55.208Z,663
2018-09-05T05:54:55.189Z,669
2018-09-05T05:55:55.224Z,714
2018-09-05T05:56:55.213Z,703
2018-09-05T05:57:55.289Z,720
2018-09-05T05:58:55.223Z,708
2018-09-05T05:59:55.216Z,759
2018-09-05T06:00:55.298Z,815
2018-09-05T06:01:55.295Z,731
2018-09-05T06:02:55.247Z,804
2018-09-05T06:03:55.270Z,815
2018-09-05T06:04:55.231Z,669
2018-09-05T06:05:55.318Z,697
2018-09-05T06:06:55.256Z,798
2018-09-05T06:07:55.300Z,736
2018-09-05T06:08:55.223Z,810
2018-09-05T06:09:55.241Z,826
2018-09-05T06:10:55.323Z,855
2018-09-05T06:11:55.257Z,748
2018-09-05T06:12:55.248Z,956
2018-09-05T06:13:55.229Z,995
2018-09-05T06:14:55.266Z,1035
2018-09-05T06:15:55.251Z,1057
2018-09-05T06:16:55.174Z,1068
2018-09-05T06:17:55.221Z,1085
2018-09-05T06:18:55.235Z,1102
2018-09-05T06:19:55.252Z,1113
2018-09-05T06:20:55.344Z,1125
2018-09-05T06:21:55.184Z,1108
2018-09-05T06:22:55.164Z,1080
2018-09-05T06:23:55.280Z,1074
2018-09-05T06:24:55.235Z,1080
2018-09-05T06:25:55.310Z,978
2018-09-05T06:26:55.241Z,1108
2018-09-05T06:27:55.267Z,1119
2018-09-05T06:28:55.310Z,1220
2018-09-05T06:29:55.245Z,1243
2018-09-05T06:30:55.395Z,1293
2018-09-05T06:31:55.245Z,1344
2018-09-05T06:32:55.262Z,1344
2018-09-05T06:33:55.316Z,1361
2018-09-05T06:34:55.243Z,1383
2018-09-05T06:35:55.316Z,1395
2018-09-05T06:36:55.208Z,1406
2018-09-05T06:37:55.416Z,1417
2018-09-05T06:38:55.272Z,1434
2018-09-05T06:39:55.249Z,1456
2018-09-05T06:40:55.243Z,1462
2018-09-05T06:41:55.250Z,1473
2018-09-05T06:42:55.323Z,1490
2018-09-05T06:43:55.259Z,1496
2018-09-05T06:44:55.256Z,1518
2018-09-05T06:45:55.250Z,1530
2018-09-05T06:46:55.325Z,1552
2018-09-05T06:47:55.253Z,1575
2018-09-05T06:48:55.326Z,1597
2018-09-05T06:49:55.256Z,1614
2018-09-05T06:50:55.326Z,1625
2018-09-05T06:51:55.331Z,1631
2018-09-05T06:52:55.332Z,1653
2018-09-05T06:53:55.193Z,1659
2018-09-05T06:54:55.228Z,1676
2018-09-05T06:55:55.316Z,1687
2018-09-05T06:56:55.231Z,1704
2018-09-05T06:57:55.302Z,1704
2018-09-05T06:58:55.279Z,1710
2018-09-05T06:59:55.300Z,1726
2018-09-05T07:00:55.299Z,1738
2018-09-05T07:01:55.325Z,1743
2018-09-05T07:02:55.291Z,1749
2018-09-05T07:03:55.397Z,1755
2018-09-05T07:04:55.338Z,1766
2018-09-05T07:05:55.351Z,1788
2018-09-05T07:06:55.394Z,1805
2018-09-05T07:07:55.268Z,1822
2018-09-05T07:08:55.271Z,1845
2018-09-05T07:09:55.316Z,1850
2018-09-05T07:10:55.343Z,1856
2018-09-05T07:11:55.269Z,1873
2018-09-05T07:12:55.297Z,1890
2018-09-05T07:13:55.269Z,1884
2018-09-05T07:14:55.293Z,1895
2018-09-05T07:15:55.232Z,1895
2018-09-05T07:16:55.275Z,1906
2018-09-05T07:17:55.245Z,1935
2018-09-05T07:18:55.278Z,1940
2018-09-05T07:19:55.212Z,1963
2018-09-05T07:21:05.685Z,1991
2018-09-05T07:21:55.301Z,2013
2018-09-05T07:22:55.220Z,2036
2018-09-05T07:23:55.353Z,2047
2018-09-05T07:24:55.378Z,2064
2018-09-05T07:25:55.277Z,2075
2018-09-05T07:26:55.354Z,2081
2018-09-05T07:27:55.282Z,2086
2018-09-05T07:28:55.352Z,2103
2018-09-05T07:29:55.284Z,2103
2018-09-05T07:30:55.450Z,2120
2018-09-05T07:31:55.353Z,2115
2018-09-05T07:32:55.307Z,2137
2018-09-05T07:33:55.289Z,2154
2018-09-05T07:34:55.319Z,2176
2018-09-05T07:35:55.315Z,2193
2018-09-05T07:36:55.358Z,2216
2018-09-05T07:37:55.299Z,2210
2018-09-05T07:38:55.360Z,2233
2018-09-05T07:39:55.288Z,2238
2018-09-05T07:40:55.290Z,2250
2018-09-05T07:41:55.363Z,2266
2018-09-05T07:42:55.361Z,2261
2018-09-05T07:43:55.289Z,2283
2018-09-05T07:44:55.364Z,2311
2018-09-05T07:45:55.299Z,2323
2018-09-05T07:46:55.369Z,2345
2018-09-05T07:47:55.366Z,2340
2018-09-05T07:48:55.326Z,2317
2018-09-05T07:49:55.365Z,2317
2018-09-05T07:50:55.332Z,2311
2018-09-05T07:51:55.256Z,2238
2018-09-05T07:52:55.371Z,2362
2018-09-05T07:53:55.301Z,2407
2018-09-05T07:54:55.371Z,2413
2018-09-05T07:55:55.304Z,2424
2018-09-05T07:56:55.372Z,2452
2018-09-05T07:57:55.381Z,2452
2018-09-05T07:58:55.303Z,2458
2018-09-05T07:59:55.383Z,2480
2018-09-05T08:00:55.297Z,2486
2018-09-05T08:01:55.375Z,2508
2018-09-05T08:02:55.319Z,2514
2018-09-05T08:03:55.375Z,2536
2018-09-05T08:04:55.365Z,2559
2018-09-05T08:05:55.337Z,2559
2018-09-05T08:06:55.331Z,2553
2018-09-05T08:07:55.286Z,2576
2018-09-05T08:08:55.285Z,2598
2018-09-05T08:09:55.281Z,2626
2018-09-05T08:10:55.379Z,2655
2018-09-05T08:11:55.278Z,2683
2018-09-05T08:12:55.252Z,2705
2018-09-05T08:13:55.373Z,2705
2018-09-05T08:14:55.313Z,2711
2018-09-05T08:15:55.311Z,2711
2018-09-05T08:16:55.387Z,2705
2018-09-05T08:17:55.359Z,2716
2018-09-05T08:18:55.321Z,2722
2018-09-05T08:19:55.325Z,2750
2018-09-05T08:20:55.349Z,2750
2018-09-05T08:21:55.388Z,2739
2018-09-05T08:22:55.325Z,2733
2018-09-05T08:23:55.393Z,2733
2018-09-05T08:24:55.350Z,2716
2018-09-05T08:25:55.354Z,2711
2018-09-05T08:26:55.283Z,2728
2018-09-05T08:27:55.373Z,2801
2018-09-05T08:28:55.342Z,2857
2018-09-05T08:29:55.263Z,2891
2018-09-05T08:30:55.350Z,2896
2018-09-05T08:31:55.381Z,2896
2018-09-05T08:32:55.317Z,2880
2018-09-05T08:33:55.255Z,2829
2018-09-05T08:34:55.388Z,2818
2018-09-05T08:35:55.775Z,2812
2018-09-05T08:36:55.660Z,2846
2018-09-05T08:37:55.382Z,2874
2018-09-05T08:38:55.485Z,2919
2018-09-05T08:39:55.333Z,2975
2018-09-05T08:40:55.365Z,3048
2018-09-05T08:41:55.341Z,3099
2018-09-05T08:42:55.420Z,3144
2018-09-05T08:43:55.553Z,3155
2018-09-05T08:44:55.558Z,3172
2018-09-05T08:45:55.563Z,3172
2018-09-05T08:46:55.496Z,3206
2018-09-05T08:47:55.445Z,3223
2018-09-05T08:48:55.357Z,3245
2018-09-05T08:49:55.364Z,3256
2018-09-05T08:50:55.343Z,3268
2018-09-05T08:51:55.340Z,3290
2018-09-05T08:52:55.466Z,3268
2018-09-05T08:53:55.360Z,3228
2018-09-05T08:54:55.413Z,3206
2018-09-05T08:55:55.416Z,3223
2018-09-05T08:56:55.341Z,3268
2018-09-05T08:57:55.414Z,3301
2018-09-05T08:58:55.411Z,3313
2018-09-05T08:59:55.299Z,3324
2018-09-05T09:00:55.349Z,3296
2018-09-05T09:01:55.418Z,3307
2018-09-05T09:02:55.444Z,3307
2018-09-05T09:03:55.343Z,3330
2018-09-05T09:04:55.485Z,3369
2018-09-05T09:05:55.352Z,3391
2018-09-05T09:06:55.423Z,3397
2018-09-05T09:07:55.423Z,3403
2018-09-05T09:08:55.304Z,3391
2018-09-05T09:09:55.351Z,3358
2018-09-05T09:10:55.422Z,3296
2018-09-05T09:11:55.351Z,3217
2018-09-05T09:12:55.424Z,3127
2018-09-05T09:13:55.353Z,3071
2018-09-05T09:14:55.453Z,3054
2018-09-05T09:15:55.353Z,3076
2018-09-05T09:16:55.431Z,3116
2018-09-05T09:17:55.354Z,3240
2018-09-05T09:18:55.432Z,3397
2018-09-05T09:19:55.394Z,3510
2018-09-05T09:20:55.432Z,3600
2018-09-05T09:21:55.433Z,3695
2018-09-05T09:22:55.593Z,3718
2018-09-05T09:23:55.369Z,3661
2018-09-05T09:24:55.360Z,3616
2018-09-05T09:25:55.309Z,3600
2018-09-05T09:26:55.437Z,3577
2018-09-05T09:27:55.369Z,3560
2018-09-05T09:28:55.436Z,3605
2018-09-05T09:29:55.364Z,3622
2018-09-05T09:30:55.437Z,3673
2018-09-05T09:31:55.383Z,3690
2018-09-05T09:32:55.439Z,3712
2018-09-05T09:33:55.370Z,3785
2018-09-05T09:34:55.445Z,3808
2018-09-05T09:35:55.370Z,3746
2018-09-05T09:36:55.445Z,3616
2018-09-05T09:37:55.367Z,3476
2018-09-05T09:38:55.446Z,3346
2018-09-05T09:39:55.445Z,3240
2018-09-05T09:40:55.371Z,3217
2018-09-05T09:41:55.445Z,3290
2018-09-05T09:42:55.372Z,3465
2018-09-05T09:43:55.449Z,3588
2018-09-05T09:44:55.400Z,3678
2018-09-05T09:45:55.408Z,3740
2018-09-05T09:46:55.409Z,3785
2018-09-05T09:47:55.319Z,3774
2018-09-05T09:48:55.337Z,3740
2018-09-05T09:49:55.287Z,3718
2018-09-05T09:50:55.398Z,3645
2018-09-05T09:51:55.330Z,3594
2018-09-05T09:52:55.359Z,3560
2018-09-05T09:53:55.415Z,3532
2018-09-05T09:54:55.460Z,3521
2018-09-05T09:55:55.384Z,3487
2018-09-05T09:56:55.455Z,3481
2018-09-05T09:57:55.400Z,3470
2018-09-05T09:58:55.386Z,3459
2018-09-05T09:59:55.462Z,3431
2018-09-05T10:00:55.388Z,3414
2018-09-05T10:01:55.459Z,3397
2018-09-05T10:02:55.388Z,3431
2018-09-05T10:03:55.407Z,3498
2018-09-05T10:04:55.336Z,3566
2018-09-05T10:05:55.448Z,3571
2018-09-05T10:06:55.415Z,3515
2018-09-05T10:07:55.340Z,3453
2018-09-05T10:08:55.428Z,3414
2018-09-05T10:09:55.409Z,3380
2018-09-05T10:10:55.428Z,3313
2018-09-05T10:11:55.454Z,3363
2018-09-05T10:12:55.412Z,3476
2018-09-05T10:13:55.415Z,3605
2018-09-05T10:14:55.402Z,3757
2018-09-05T10:15:55.471Z,3870
2018-09-05T10:16:55.470Z,3937
2018-09-05T10:17:55.470Z,3988
2018-09-05T10:18:55.396Z,3988
2018-09-05T10:19:55.474Z,3988
2018-09-05T10:20:55.450Z,4027
2018-09-05T10:21:55.475Z,4072
2018-09-05T10:22:55.395Z,4038
2018-09-05T10:23:55.418Z,4005
2018-09-05T10:24:55.403Z,3976
2018-09-05T10:25:55.437Z,3971
2018-09-05T10:26:55.401Z,3960
2018-09-05T10:27:55.404Z,3898
2018-09-05T10:28:55.328Z,3881
2018-09-05T10:29:55.313Z,3909
2018-09-05T10:30:55.379Z,3881
2018-09-05T10:31:55.387Z,3909
2018-09-05T10:32:55.437Z,3931
2018-09-05T10:33:55.388Z,3931
2018-09-05T10:34:55.409Z,3926
2018-09-05T10:35:55.347Z,3926
2018-09-05T10:36:55.444Z,3931
2018-09-05T10:37:55.368Z,3954
2018-09-05T10:38:55.448Z,3971
2018-09-05T10:39:55.445Z,4005
2018-09-05T10:40:55.392Z,4021
2018-09-05T10:41:55.338Z,4050
2018-09-05T10:42:55.448Z,4128
2018-09-05T10:43:55.327Z,4218
2018-09-05T10:44:55.497Z,4252
2018-09-05T10:45:55.492Z,4196
2018-09-05T10:46:55.416Z,4168
2018-09-05T10:47:55.496Z,4145
2018-09-05T10:48:55.422Z,4128
2018-09-05T10:49:55.493Z,4123
2018-09-05T10:50:55.422Z,4134
2018-09-05T10:51:55.609Z,4218
2018-09-05T10:52:55.470Z,4207
2018-09-05T10:53:55.493Z,4218
2018-09-05T10:54:55.498Z,4213
2018-09-05T10:55:55.451Z,4213
2018-09-05T10:56:55.536Z,4235
2018-09-05T10:57:55.427Z,4156
2018-09-05T10:58:55.501Z,4083
2018-09-05T10:59:55.425Z,4061
2018-09-05T11:00:55.455Z,4100
2018-09-05T11:01:55.506Z,4140
2018-09-05T11:02:55.505Z,4179
2018-09-05T11:03:55.426Z,4213
2018-09-05T11:04:55.428Z,4218
2018-09-05T11:05:55.391Z,4224
2018-09-05T11:06:55.507Z,4235
2018-09-05T11:07:55.431Z,4235
2018-09-05T11:08:55.438Z,4207
2018-09-05T11:09:55.511Z,4128
2018-09-05T11:10:55.575Z,4128
2018-09-05T11:11:55.513Z,4173
2018-09-05T11:12:55.435Z,4185
2018-09-05T11:13:55.513Z,4128
2018-09-05T11:14:55.423Z,4083
2018-09-05T11:15:55.441Z,4140
2018-09-05T11:16:55.445Z,4275
2018-09-05T11:17:55.514Z,4348
2018-09-05T11:18:55.439Z,4426
2018-09-05T11:19:55.514Z,4421
2018-09-05T11:20:55.441Z,4415
2018-09-05T11:21:55.442Z,4331
2018-09-05T11:22:55.519Z,4246
2018-09-05T11:23:55.468Z,4185
2018-09-05T11:24:55.455Z,4207
2018-09-05T11:25:55.465Z,4218
2018-09-05T11:26:55.410Z,4162
2018-09-05T11:27:55.407Z,4089
2018-09-05T11:28:55.464Z,4100
2018-09-05T11:29:55.417Z,4134
2018-09-05T11:30:55.416Z,4128
2018-09-05T11:31:55.369Z,4128
2018-09-05T11:32:55.350Z,4123
2018-09-05T11:33:55.463Z,4140
2018-09-05T11:34:55.437Z,4111
2018-09-05T11:35:55.492Z,4021
2018-09-05T11:36:55.580Z,3841
2018-09-05T11:37:55.528Z,3633
2018-09-05T11:38:55.455Z,3481
2018-09-05T11:39:55.531Z,3436
2018-09-05T11:40:55.459Z,3403
2018-09-05T11:41:55.532Z,3425
2018-09-05T11:42:55.460Z,3543
2018-09-05T11:43:55.530Z,3723
2018-09-05T11:44:55.457Z,3870
2018-09-05T11:45:55.530Z,3943
2018-09-05T11:46:55.457Z,3960
2018-09-05T11:47:55.535Z,4044
2018-09-05T11:48:55.462Z,3993
2018-09-05T11:49:55.532Z,4021
2018-09-05T11:50:55.535Z,4111
2018-09-05T11:51:55.464Z,4179
2018-09-05T11:52:55.538Z,4201
2018-09-05T11:53:55.464Z,4224
2018-09-05T11:54:55.506Z,4263
2018-09-05T11:55:55.452Z,4258
2018-09-05T11:56:55.504Z,4246
2018-09-05T11:57:55.398Z,4218
2018-09-05T11:58:55.423Z,4190
2018-09-05T11:59:55.444Z,4151
2018-09-05T12:00:55.548Z,4123
2018-09-05T12:01:55.503Z,4134
2018-09-05T12:02:55.440Z,4162
2018-09-05T12:03:55.493Z,4207
2018-09-05T12:04:55.589Z,4235
2018-09-05T12:05:55.467Z,4218
2018-09-05T12:06:55.550Z,4190
2018-09-05T12:07:55.470Z,4190
2018-09-05T12:08:55.550Z,4117
2018-09-05T12:09:55.504Z,4100
2018-09-05T12:10:55.549Z,4100
2018-09-05T12:11:55.479Z,4100
2018-09-05T12:12:55.482Z,4095
2018-09-05T12:13:55.585Z,4106
2018-09-05T12:14:55.556Z,4106
2018-09-05T12:15:55.482Z,4083
2018-09-05T12:16:55.561Z,4072
2018-09-05T12:17:55.483Z,4089
2018-09-05T12:18:55.567Z,4078
2018-09-05T12:19:55.481Z,4078
2018-09-05T12:20:55.487Z,4066
2018-09-05T12:21:55.493Z,4083
2018-09-05T12:22:55.558Z,4106
2018-09-05T12:23:55.523Z,4111
2018-09-05T12:24:55.565Z,4128
2018-09-05T12:25:55.489Z,4151
2018-09-05T12:26:55.563Z,4185
2018-09-05T12:27:55.490Z,4145
2018-09-05T12:28:55.565Z,4128
2018-09-05T12:29:55.563Z,4100
2018-09-05T12:30:55.492Z,4050
2018-09-05T12:31:55.567Z,4021
2018-09-05T12:32:55.493Z,4021
2018-09-05T12:33:55.496Z,4010
2018-09-05T12:34:55.565Z,3948
2018-09-05T12:35:55.494Z,3870
2018-09-05T12:36:55.571Z,3780
2018-09-05T12:37:55.494Z,3628
2018-09-05T12:38:55.497Z,3453
2018-09-05T12:39:55.573Z,3301
2018-09-05T12:40:55.497Z,3240
2018-09-05T12:41:55.571Z,3256
2018-09-05T12:42:55.497Z,3330
2018-09-05T12:43:55.573Z,3465
2018-09-05T12:44:55.519Z,3645
2018-09-05T12:45:55.521Z,3746
2018-09-05T12:46:55.549Z,3830
2018-09-05T12:47:55.429Z,3841
2018-09-05T12:48:55.524Z,3813
2018-09-05T12:49:55.428Z,3757
2018-09-05T12:50:55.519Z,3746
2018-09-05T12:51:55.524Z,3746
2018-09-05T12:52:55.475Z,3712
2018-09-05T12:53:55.483Z,3751
2018-09-05T12:54:55.513Z,3825
2018-09-05T12:55:55.509Z,3886
2018-09-05T12:56:55.579Z,3931
2018-09-05T12:57:55.510Z,3948
2018-09-05T12:58:55.615Z,3954
2018-09-05T12:59:55.511Z,3931
2018-09-05T13:00:55.518Z,3853
2018-09-05T13:01:55.587Z,3796
2018-09-05T13:02:55.584Z,3780
2018-09-05T13:03:55.515Z,3791
2018-09-05T13:04:55.596Z,3774
2018-09-05T13:05:55.532Z,3723
2018-09-05T13:06:55.547Z,3673
2018-09-05T13:07:55.451Z,3611
2018-09-05T13:08:55.517Z,3526
2018-09-05T13:09:55.455Z,3504
2018-09-05T13:10:55.547Z,3465
2018-09-05T13:11:55.500Z,3470
2018-09-05T13:12:55.545Z,3476
2018-09-05T13:13:55.445Z,3465
2018-09-05T13:14:55.446Z,3465
2018-09-05T13:15:55.536Z,3431
2018-09-05T13:16:55.537Z,3352
2018-09-05T13:17:55.546Z,3240
2018-09-05T13:18:55.444Z,3110
2018-09-05T13:19:55.431Z,2986
2018-09-05T13:20:55.544Z,2885
2018-09-05T13:21:55.492Z,2840
2018-09-05T13:22:55.562Z,2846
2018-09-05T13:23:55.495Z,2902
2018-09-05T13:24:55.604Z,2981
2018-09-05T13:25:55.550Z,3060
2018-09-05T13:26:55.657Z,3110
2018-09-05T13:27:55.537Z,3150
2018-09-05T13:28:55.605Z,3155
2018-09-05T13:29:55.532Z,3240
2018-09-05T13:30:55.608Z,3228
2018-09-05T13:31:55.530Z,3189
2018-09-05T13:32:55.544Z,3155
2018-09-05T13:33:55.532Z,3178
2018-09-05T13:34:55.501Z,3195
2018-09-05T13:35:55.554Z,3166
2018-09-05T13:36:55.465Z,3178
2018-09-05T13:37:55.556Z,3161
2018-09-05T13:38:55.550Z,3144
2018-09-05T13:39:55.500Z,3110
2018-09-05T13:40:55.558Z,3093
2018-09-05T13:41:55.553Z,3082
2018-09-05T13:42:55.504Z,3088
2018-09-05T13:43:55.503Z,3071
2018-09-05T13:44:55.513Z,3054
2018-09-05T13:45:55.579Z,3054
2018-09-05T13:46:55.586Z,3048
2018-09-05T13:47:55.527Z,3037
2018-09-05T13:48:55.520Z,2998
2018-09-05T13:49:55.498Z,2964